EW4906 Weather Reports


Display with metric or nautical units.
time (UTC)temp
F
wind
direction
speed
MPH
gust
MPH
rain 1hr
in
rain 24hr
in
rain mn
in
humidity
%
barometer
mb
20181212094532 34 303 0.0 1.0 0.00 0.00 0.00 70 1018.8
20181212093150 34 302 0.0 1.0 0.00 0.00 0.00 69 1018.7
20181212091556 35 326 0.0 0.0 0.00 0.00 0.00 68 1018.6
20181212090031 36 273 0.0 1.0 0.00 0.00 0.00 66 1018.3
20181212084745 36 303 0.0 1.0 0.00 0.00 0.00 65 1018.2
20181212083124 36 310 0.0 1.0 0.00 0.00 0.00 65 1018.4
20181212081545 36 309 0.0 5.0 0.00 0.00 0.00 65 1018.3
20181212074623 36 319 0.0 1.0 0.00 0.00 0.00 65 1017.8
20181212073032 36 321 0.0 0.0 0.00 0.00 0.00 65 1017.7
20181212071511 36 7 0.0 5.0 0.00 0.00 0.00 65 1017.4
20181212070140 36 322 0.0 5.0 0.00 0.00 0.00 65 1017.3
20181212064515 35 272 0.0 2.0 0.00 0.00 0.00 67 1017.1
20181212063240 35 259 0.0 0.0 0.00 0.00 0.00 69 1017.0
20181212061542 33 290 0.0 0.0 0.00 0.00 0.00 73 1016.9
20181212060237 31 319 0.0 0.0 0.00 0.00 0.00 77 1016.8
20181212054634 31 251 0.0 0.0 0.00 0.00 0.00 78 1016.7
20181212053013 31 251 0.0 0.0 0.00 0.00 0.00 76 1016.8
20181212051613 30 251 0.0 0.0 0.00 0.00 0.00 76 1016.8
20181212044617 30 251 0.0 0.0 0.00 0.00 0.00 78 1016.6
20181212043114 30 251 0.0 0.0 0.00 0.00 0.00 79 1016.6
20181212041519 29 251 0.0 0.0 0.00 0.00 0.00 81 1016.7
20181212034705 28 251 0.0 0.0 0.00 0.00 0.00 87 1016.7
20181212033056 27 251 0.0 0.0 0.00 0.00 0.00 87 1016.7
20181212023204 25 251 0.0 0.0 0.00 0.00 0.00 89 1016.7
20181212021628 25 251 0.0 0.0 0.00 0.00 0.00 89 1016.7
20181212020008 25 251 0.0 0.0 0.00 0.00 0.00 89 1016.6
20181212014652 24 251 0.0 0.0 0.00 0.00 0.00 89 1016.5
20181212013056 25 251 0.0 0.0 0.00 0.00 0.00 87 1016.6
20181212011542 25 251 0.0 0.0 0.00 0.00 0.00 87 1016.4
20181212004548 25 251 0.0 0.0 0.00 0.00 0.00 85 1016.4
20181212003038 26 251 0.0 0.0 0.00 0.00 0.00 85 1016.2
20181212001649 26 251 0.0 0.0 0.00 0.00 0.00 84 1016.1
20181212000136 27 251 0.0 0.0 0.00 0.00 0.00 81 1015.9
20181211234505 27 251 0.0 0.0 0.00 0.00 0.00 82 1015.7
20181211233143 28 251 0.0 0.0 0.00 0.00 0.00 81 1015.7
20181211231607 28 251 0.0 0.0 0.00 0.00 0.00 79 1015.7
20181211230034 29 251 0.0 0.0 0.00 0.00 0.00 77 1015.7
20181211224604 30 52 0.0 0.0 0.00 0.00 0.00 75 1015.7
20181211223056 31 52 0.0 0.0 0.00 0.00 0.00 72 1015.7
20181211221536 32 251 0.0 0.0 0.00 0.00 0.00 70 1015.7
20181211214613 35 251 0.0 0.0 0.00 0.00 0.00 63 1015.7
20181211213038 36 251 0.0 0.0 0.00 0.00 0.00 61 1015.7
20181211211747 36 251 0.0 0.0 0.00 0.00 0.00 59 1015.9
20181211211502 36 251 0.0 0.0 0.00 0.00 0.00 59 1015.8
20181211210103 37 251 0.0 0.0 0.00 0.00 0.00 58 1016.0
20181211204536 37 258 0.0 0.0 0.00 0.00 0.00 57 1016.0
20181211203132 37 240 0.0 0.0 0.00 0.00 0.00 57 1016.1
20181211201601 37 241 0.0 0.0 0.00 0.00 0.00 57 1016.0
20181211200004 37 232 0.0 0.0 0.00 0.00 0.00 57 1016.0
20181211194638 38 236 0.0 0.0 0.00 0.00 0.00 56 1016.2
20181211193052 38 237 0.0 0.0 0.00 0.00 0.00 56 1016.2
20181211191530 38 217 0.0 0.0 0.00 0.00 0.00 58 1016.4
20181211190135 38 220 0.0 0.0 0.00 0.00 0.00 59 1016.5
20181211184612 38 211 0.0 0.0 0.00 0.00 0.00 61 1016.7
20181211183153 37 306 0.0 1.0 0.00 0.00 0.00 63 1017.1
20181211181546 36 211 0.0 2.0 0.00 0.00 0.00 64 1017.7
20181211174706 35 208 0.0 0.0 0.00 0.00 0.00 66 1018.1
20181211173032 36 230 0.0 1.0 0.00 0.00 0.00 66 1018.5
20181211171556 36 246 0.0 0.0 0.00 0.00 0.00 68 1018.8
20181211170043 35 239 0.0 0.0 0.00 0.00 0.00 69 1019.3
20181211164611 35 223 0.0 0.0 0.00 0.00 0.00 71 1019.7
20181211163045 35 220 0.0 0.0 0.00 0.00 0.00 72 1019.8
20181211161738 34 249 0.0 0.0 0.00 0.00 0.00 75 1020.0
20181211161502 34 250 0.0 0.0 0.00 0.00 0.00 74 1020.1
20181211160107 33 296 0.0 0.0 0.00 0.00 0.00 75 1020.3
20181211154715 33 291 0.0 0.0 0.00 0.00 0.00 77 1020.7
20181211154502 33 291 0.0 0.0 0.00 0.00 0.00 77 1020.7
20181211153101 32 241 0.0 0.0 0.00 0.00 0.00 81 1020.8
20181211151605 30 238 0.0 1.0 0.00 0.00 0.00 84 1021.1
20181211150128 29 52 0.0 0.0 0.00 0.00 0.00 87 1021.2
20181211144551 27 275 0.0 0.0 0.00 0.00 0.00 89 1021.3
20181211143110 26 213 0.0 1.0 0.00 0.00 0.00 92 1021.4
20181211141554 24 215 0.0 0.0 0.00 0.00 0.00 94 1021.4
20181211134552 20 52 0.0 0.0 0.00 0.00 0.00 95 1021.5
20181211133041 19 52 0.0 0.0 0.00 0.00 0.00 94 1021.5
20181211131532 17 52 0.0 0.0 0.00 0.00 0.00 93 1021.5
20181211130112 17 296 0.0 0.0 0.00 0.00 0.00 93 1021.4
20181211124545 17 298 0.0 0.0 0.00 0.00 0.00 92 1021.5
20181211123010 17 298 0.0 0.0 0.00 0.00 0.00 93 1021.5
20181211121732 17 298 0.0 0.0 0.00 0.00 0.00 92 1021.7
20181211120118 17 298 0.0 0.0 0.00 0.00 0.00 92 1021.7
20181211114512 17 298 0.0 0.0 0.00 0.00 0.00 93 1021.8
20181211113148 17 298 0.0 0.0 0.00 0.00 0.00 92 1021.8
20181211111706 17 298 0.0 0.0 0.00 0.00 0.00 93 1021.9
20181211110017 17 298 0.0 0.0 0.00 0.00 0.00 92 1021.9